»·PEaware :: JBU717 KMFR-KBFI

JBU717 :: KMFR-KBFI

FLIGHT INFORMATION

Flight Status: Arrived
Operator:
JetBlue Airways
More flights by this operator :: More flights under this callsign
Pilot: Ty S. (2873)
Aircraft: EMBRAER EMB-190/195
(E190)
More flights by this aircraft type
Origin: KMFR Rogue Valley Intl-Medford
United States
Destination: KBFI Boeing Field/King Co Intl
United States
More flights between these airports :: More routes between these airports
Route: JKSN1 OED J1 BTG OLM2
File this flight plan on PilotEdge
Remarks:
Altitude:
(Current/Filed)
34,000ft
Speed:
(Current/Filed)
447kts
Departed: 22-Dec-17 07:17 PM
Arrived: 22-Dec-17 08:20 PM
Distance/Time
Traveled:
311nm/1:02
Distance/Time
To Go:
Arrived

Flight Plot

Page will automatically refresh every two minutes.

Flight plan parsing failed; only flown route is shown


Map Options




Map Legend


Flown Route
Filed Route
Departure Airport
Arrival Airport
Navaid (VOR, NDB)
Fix

Horizontal Profiles

Position Reports

Time Latitude Longitude Heading Altitude Ground
Speed
22-Dec-17 18:57 42.369722 -122.873856 247 1339ft 0kts
22-Dec-17 18:58 42.369722 -122.873856 247 1339ft 0kts
22-Dec-17 18:59 42.369722 -122.873856 247 1339ft 0kts
22-Dec-17 19:00 42.369722 -122.873856 247 1339ft 0kts
22-Dec-17 19:01 42.369722 -122.873856 247 1339ft 0kts
22-Dec-17 19:02 42.369722 -122.873856 247 1339ft 0kts
22-Dec-17 19:03 42.369722 -122.873856 247 1339ft 0kts
22-Dec-17 19:04 42.369722 -122.873856 247 1339ft 0kts
22-Dec-17 19:05 42.369722 -122.873856 247 1339ft 0kts
22-Dec-17 19:06 42.369722 -122.873856 247 1339ft 0kts
22-Dec-17 19:07 42.369722 -122.873856 247 1339ft 0kts
22-Dec-17 19:08 42.369722 -122.873856 247 1339ft 0kts
22-Dec-17 19:09 42.369722 -122.873856 247 1339ft 0kts
22-Dec-17 19:10 42.369722 -122.873856 247 1339ft 0kts
22-Dec-17 19:11 42.369722 -122.873856 247 1339ft 0kts
22-Dec-17 19:12 42.369722 -122.873856 247 1339ft 0kts
22-Dec-17 19:13 42.369722 -122.873856 247 1339ft 0kts
22-Dec-17 19:14 42.369722 -122.873857 247 1339ft 0kts
22-Dec-17 19:15 42.369818 -122.873580 247 1339ft 2kts
22-Dec-17 19:16 42.369741 -122.872989 338 1339ft 1kts
22-Dec-17 19:17 42.369714 -122.872974 337 1339ft 0kts
22-Dec-17 19:18 42.369962 -122.872577 100 1339ft 6kts
22-Dec-17 19:19 42.367326 -122.870883 158 1339ft 9kts
22-Dec-17 19:20 42.364758 -122.869522 159 1339ft 13kts
22-Dec-17 19:21 42.363692 -122.868888 131 1339ft 0kts
22-Dec-17 19:22 42.364265 -122.867671 338 1339ft 3kts
22-Dec-17 19:23 42.396213 -122.884874 337 2358ft 184kts
22-Dec-17 19:24 42.447425 -122.910721 351 5370ft 198kts
22-Dec-17 19:25 42.501080 -122.922946 331 8511ft 199kts
22-Dec-17 19:26 42.553591 -122.949449 3 11310ft 228kts
22-Dec-17 19:27 42.559067 -122.871714 161 13492ft 268kts
22-Dec-17 19:28 42.496371 -122.886250 226 15857ft 224kts
22-Dec-17 19:29 42.490527 -122.943488 337 17950ft 231kts
22-Dec-17 19:30 42.559360 -122.916709 0 19960ft 262kts
22-Dec-17 19:31 42.640186 -122.899709 355 20236ft 331kts
22-Dec-17 19:32 42.738378 -122.888947 354 21272ft 377kts
22-Dec-17 19:33 42.842561 -122.879347 353 23426ft 381kts
22-Dec-17 19:34 42.949522 -122.869380 352 25169ft 389kts
22-Dec-17 19:35 43.057784 -122.859166 351 26730ft 394kts
22-Dec-17 19:36 43.164825 -122.849002 351 27980ft 401kts
22-Dec-17 19:37 43.276644 -122.838207 351 29183ft 407kts
22-Dec-17 19:38 43.390420 -122.827321 351 30210ft 414kts
22-Dec-17 19:39 43.505658 -122.816319 351 31135ft 418kts
22-Dec-17 19:40 43.621052 -122.805115 350 32127ft 416kts
22-Dec-17 19:41 43.734752 -122.793890 349 34295ft 405kts
22-Dec-17 19:42 43.847799 -122.783225 349 34329ft 408kts
22-Dec-17 19:43 43.960656 -122.772348 349 34329ft 409kts
22-Dec-17 19:44 44.073801 -122.761320 349 34329ft 408kts
22-Dec-17 19:45 44.177623 -122.751015 350 34338ft 409kts
22-Dec-17 19:46 44.290437 -122.739701 349 34335ft 408kts
22-Dec-17 19:47 44.403673 -122.728530 349 34323ft 409kts
22-Dec-17 19:48 44.516572 -122.717369 349 34306ft 408kts
22-Dec-17 19:49 44.629647 -122.706149 349 34298ft 408kts
22-Dec-17 19:50 44.736934 -122.695454 349 34296ft 409kts
22-Dec-17 19:51 44.847437 -122.684411 349 34296ft 408kts
22-Dec-17 19:52 44.960589 -122.673028 349 34302ft 408kts
22-Dec-17 19:53 45.073582 -122.661559 349 34302ft 406kts
22-Dec-17 19:54 45.180912 -122.650538 349 34313ft 405kts
22-Dec-17 19:55 45.292890 -122.638967 348 34310ft 407kts
22-Dec-17 19:56 45.403363 -122.627626 349 34312ft 406kts
22-Dec-17 19:57 45.513984 -122.616305 348 34310ft 406kts
22-Dec-17 19:58 45.624928 -122.604795 348 34309ft 406kts
22-Dec-17 19:59 45.737374 -122.593293 346 34308ft 401kts
22-Dec-17 20:00 45.843992 -122.612205 335 33268ft 385kts
22-Dec-17 20:01 45.949845 -122.642646 337 31316ft 396kts
22-Dec-17 20:02 46.058466 -122.669589 338 29324ft 393kts
22-Dec-17 20:03 46.150784 -122.692190 338 27606ft 386kts
22-Dec-17 20:04 46.253448 -122.718097 339 25677ft 379kts
22-Dec-17 20:05 46.355616 -122.744005 340 23710ft 372kts
22-Dec-17 20:06 46.456323 -122.769640 340 21590ft 365kts
22-Dec-17 20:07 46.554314 -122.794595 341 19399ft 353kts
22-Dec-17 20:08 46.649296 -122.818953 342 17211ft 345kts
22-Dec-17 20:09 46.742575 -122.842947 344 15015ft 338kts
22-Dec-17 20:10 46.833690 -122.866402 345 13004ft 325kts
22-Dec-17 20:11 46.921268 -122.889077 346 12991ft 327kts
22-Dec-17 20:12 47.002293 -122.863941 31 12986ft 297kts
22-Dec-17 20:13 47.064742 -122.783160 37 12514ft 308kts
22-Dec-17 20:14 47.125270 -122.705580 37 11068ft 293kts
22-Dec-17 20:15 47.180335 -122.635927 37 9706ft 282kts
22-Dec-17 20:16 47.235172 -122.565304 38 8295ft 273kts
22-Dec-17 20:17 47.289057 -122.495820 38 6861ft 265kts
22-Dec-17 20:18 47.322894 -122.408090 84 5827ft 261kts
22-Dec-17 20:19 47.325800 -122.307564 85 4658ft 249kts
22-Dec-17 20:20 47.329114 -122.209400 85 3561ft 237kts
22-Dec-17 20:21 47.365911 -122.157449 5 3030ft 194kts
22-Dec-17 20:22 47.413006 -122.186949 329 2341ft 195kts
22-Dec-17 20:23 47.451928 -122.230922 319 1765ft 160kts
22-Dec-17 20:24 47.483442 -122.263883 334 1105ft 127kts
22-Dec-17 20:25 47.511502 -122.286953 333 231ft 122kts
22-Dec-17 20:26 47.530096 -122.302109 23 26ft 12kts
22-Dec-17 20:27 47.532288 -122.301377 330 26ft 11kts
22-Dec-17 20:28 47.535037 -122.302886 55 26ft 6kts

Navigation Log

Ident Type
Flight plan parsing failed, navigation log unavailable